Boon, Michigan
Current Conditions -  °F | °C
As of 5:15 AM on Friday 31 Oct 2014 (Local Time) from KCAD Reporting Station
Drizzle Drizzle  
Wind Chill: 31°   Ceiling: 1500
Heat Index: 37°   Visibility: 10mi
Dew Point: 36°   Wind: 8mph
Humidity: 94%   Direction: 290°WNW
Pressure: 29.88"   Gusts: NA
Location:  44.29°N, 85.6°W
Report Text: KCAD 310915Z AUTO 29007KT 10SM DZ SCT007 BKN015 OVC022 02/02 A2988 RMK AO2 T00290020
Loading
Personal Weather Stations






























Interactive Weather Map
Tropical Storm Tracking
New forecast layout! Learn more

10-Day Weather Forecast

Advertisements
Track Severe Weather on mobile